Time;durP1;ratioP1;P1;durP2;ratioP2;P2;SDS_P1;SDS_P2;PMS_P1;PMS_P2;Temp;Humidity;BMP_temperature;BMP_pressure;BME280_temperature;BME280_humidity;BME280_pressure;Samples;Min_cycle;Max_cycle;Signal;HPM_P1;HPM_P2
2022/01/21 00:00:32;;;;;;;4.10;2.97;;;5.70;56.30;;;;;;5077773;28;20755;-87
2022/01/21 00:02:59;;;;;;;8.33;3.17;;;5.90;56.10;;;;;;5072455;28;20530;-87
2022/01/21 00:05:26;;;;;;;6.77;3.47;;;6.00;55.70;;;;;;5074978;28;20948;-88
2022/01/21 00:07:53;;;;;;;9.53;2.77;;;6.20;55.30;;;;;;5056487;28;20447;-88
2022/01/21 00:10:20;;;;;;;6.00;2.93;;;6.30;54.90;;;;;;5074426;28;20479;-86
2022/01/21 00:12:52;;;;;;;7.77;3.27;;;6.10;54.60;;;;;;5055292;28;21554;-88
2022/01/21 00:15:19;;;;;;;5.00;2.17;;;6.10;54.50;;;;;;5073454;28;20470;-87
2022/01/21 00:17:47;;;;;;;7.03;2.50;;;6.20;54.40;;;;;;5073556;28;20485;-87
2022/01/21 00:31:12;;;;;;;5.57;1.90;;;6.50;53.40;;;;;;5072652;28;20456;-88
2022/01/21 00:33:40;;;;;;;8.70;3.13;;;6.50;53.10;;;;;;5055146;28;21061;-87
2022/01/21 00:36:08;;;;;;;7.20;2.60;;;6.00;53.50;;;;;;5074145;28;20473;-87
2022/01/21 00:38:36;;;;;;;4.87;2.70;;;5.90;54.50;;;;;;5053991;28;21052;-87
2022/01/21 00:41:05;;;;;;;5.83;2.10;;;6.00;54.60;;;;;;5074697;28;20819;-86
2022/01/21 00:43:43;;;;;;;6.70;2.27;;;6.20;54.20;;;;;;5074057;28;20939;-87
2022/01/21 00:46:10;;;;;;;4.40;2.20;;;6.10;54.00;;;;;;5054940;28;20479;-88
2022/01/21 00:48:37;;;;;;;8.23;3.07;;;6.00;54.00;;;;;;5073875;28;20850;-88
2022/01/21 00:51:07;;;;;;;3.57;2.43;;;6.00;54.30;;;;;;5057515;28;20964;-87
2022/01/21 00:53:34;;;;;;;11.57;3.30;;;6.10;54.00;;;;;;5055351;28;20486;-87
2022/01/21 00:56:01;;;;;;;3.00;2.53;;;5.90;54.30;;;;;;5072469;28;20455;-87
2022/01/21 00:58:28;;;;;;;5.80;4.13;;;6.20;54.30;;;;;;5042557;28;20461;-88
2022/01/21 01:00:55;;;;;;;7.27;3.30;;;6.40;54.00;;;;;;5070742;28;20448;-88
2022/01/21 01:03:22;;;;;;;3.80;2.70;;;6.60;53.80;;;;;;5061600;28;21065;-88
2022/01/21 01:05:51;;;;;;;5.43;3.00;;;6.70;53.50;;;;;;5069811;28;20451;-87
2022/01/21 01:08:20;;;;;;;2.83;2.50;;;6.80;52.90;;;;;;5054423;28;20967;-87
2022/01/21 01:11:00;;;;;;;5.27;2.70;;;6.70;52.80;;;;;;5071678;28;20543;-88
2022/01/21 01:21:44;;;;;;;4.30;3.50;;;6.40;53.20;;;;;;5069162;28;20456;-87
2022/01/21 01:29:42;;;;;;;3.43;2.87;;;6.30;53.10;;;;;;5073425;28;20451;-87
2022/01/21 01:32:09;;;;;;;4.87;2.80;;;6.20;53.60;;;;;;5069776;28;20481;-88
2022/01/21 01:34:36;;;;;;;6.67;2.60;;;6.10;54.10;;;;;;5072811;28;20556;-87
2022/01/21 01:37:10;;;;;;;10.33;3.20;;;6.10;53.90;;;;;;5072361;28;21016;-87
2022/01/21 01:39:43;;;;;;;3.97;1.97;;;6.10;54.00;;;;;;5065583;28;21075;-86
2022/01/21 01:42:49;;;;;;;4.40;2.87;;;6.10;54.20;;;;;;5061589;28;21043;-88
2022/01/21 01:50:49;;;;;;;4.90;2.83;;;6.20;54.10;;;;;;5073441;28;20453;-87
2022/01/21 01:53:16;;;;;;;10.80;3.63;;;6.10;54.00;;;;;;5056672;28;20484;-87
2022/01/21 01:55:46;;;;;;;4.70;2.50;;;6.20;54.10;;;;;;5074040;28;20996;-87
2022/01/21 01:58:14;;;;;;;5.83;2.90;;;6.40;54.10;;;;;;5072412;28;20456;-87
2022/01/21 02:00:43;;;;;;;9.57;2.70;;;6.40;53.80;;;;;;5073725;28;20474;-88
2022/01/21 02:03:13;;;;;;;6.60;2.60;;;6.30;53.70;;;;;;5071575;28;20472;-87
2022/01/21 02:05:41;;;;;;;3.90;2.73;;;6.10;54.30;;;;;;5057774;28;21181;-87
2022/01/21 02:08:10;;;;;;;3.63;2.20;;;6.10;54.70;;;;;;5069810;28;20464;-88
2022/01/21 02:10:37;;;;;;;5.67;2.90;;;6.00;54.40;;;;;;5074037;28;20494;-88
2022/01/21 02:13:18;;;;;;;8.57;3.93;;;6.10;54.70;;;;;;5062497;28;20486;-87
2022/01/21 02:15:56;;;;;;;10.17;2.20;;;6.20;54.50;;;;;;5071389;28;20806;-87
2022/01/21 02:21:30;;;;;;;4.57;2.70;;;6.30;54.10;;;;;;5074974;28;20609;-87
2022/01/21 02:24:01;;;;;;;10.80;2.47;;;6.50;53.80;;;;;;5060976;28;20483;-88
2022/01/21 02:26:29;;;;;;;6.63;2.73;;;6.60;53.70;;;;;;5075236;28;20452;-88
2022/01/21 02:28:59;;;;;;;4.77;2.33;;;6.60;53.50;;;;;;5060277;28;20959;-88
2022/01/21 02:31:26;;;;;;;5.83;2.60;;;6.70;53.30;;;;;;5057135;28;20858;-87
2022/01/21 02:33:53;;;;;;;6.93;2.70;;;6.80;53.30;;;;;;5077398;28;20587;-88
2022/01/21 02:36:22;;;;;;;3.00;2.27;;;6.90;53.20;;;;;;5075859;28;20453;-87
2022/01/21 02:38:49;;;;;;;4.60;2.43;;;6.80;52.80;;;;;;5066200;28;20468;-86
2022/01/21 02:41:16;;;;;;;9.03;2.70;;;6.70;52.60;;;;;;5065182;28;20610;-87
2022/01/21 02:43:43;;;;;;;7.33;2.20;;;6.70;52.80;;;;;;5064047;28;20490;-88
2022/01/21 02:46:11;;;;;;;6.70;2.70;;;6.80;53.10;;;;;;5072303;28;20563;-88
2022/01/21 02:48:40;;;;;;;3.83;2.20;;;6.80;52.70;;;;;;5040812;28;20901;-87
2022/01/21 02:51:09;;;;;;;4.80;2.37;;;6.70;52.70;;;;;;5060202;28;20451;-88
2022/01/21 02:54:03;;;;;;;5.07;2.43;;;6.70;52.80;;;;;;5056484;28;22900;-88
2022/01/21 02:56:29;;;;;;;6.13;2.93;;;6.50;52.80;;;;;;5056301;28;20467;-88
2022/01/21 02:58:56;;;;;;;6.00;2.53;;;6.40;53.10;;;;;;5067249;28;20971;-87
2022/01/21 03:01:25;;;;;;;5.40;3.13;;;6.30;53.30;;;;;;5058024;28;20870;-87
2022/01/21 03:03:52;;;;;;;6.60;3.20;;;6.30;53.70;;;;;;5066205;28;20479;-87
2022/01/21 03:06:22;;;;;;;7.10;2.17;;;6.30;53.50;;;;;;5057992;28;20555;-88
2022/01/21 03:08:53;;;;;;;7.93;3.27;;;6.10;53.60;;;;;;5074741;28;20612;-88
2022/01/21 03:11:22;;;;;;;5.13;3.20;;;6.20;53.70;;;;;;5074735;28;20460;-85
2022/01/21 03:13:49;;;;;;;7.23;3.50;;;6.00;53.50;;;;;;5065962;28;20835;-88
2022/01/21 03:16:16;;;;;;;3.70;2.60;;;6.10;53.80;;;;;;5065085;28;20549;-87
2022/01/21 03:18:43;;;;;;;10.40;2.93;;;6.00;53.70;;;;;;5072579;28;20828;-88
2022/01/21 03:21:16;;;;;;;7.50;3.00;;;6.10;53.70;;;;;;5060689;28;20963;-87
2022/01/21 03:23:46;;;;;;;16.90;3.63;;;6.10;53.40;;;;;;5073702;28;20479;-87
2022/01/21 03:26:16;;;;;;;3.30;2.50;;;6.00;53.20;;;;;;5055035;28;20526;-87
2022/01/21 03:28:49;;;;;;;5.43;2.30;;;6.00;53.60;;;;;;5065040;28;21007;-87
2022/01/21 03:31:17;;;;;;;11.23;3.30;;;6.20;53.50;;;;;;5059389;28;20456;-86
2022/01/21 03:33:45;;;;;;;4.13;2.80;;;6.20;53.40;;;;;;5073518;28;20521;-88
2022/01/21 03:36:13;;;;;;;4.77;2.33;;;6.20;53.10;;;;;;5077517;28;20452;-87
2022/01/21 03:38:40;;;;;;;8.27;3.90;;;6.20;53.30;;;;;;5063695;28;20554;-87
2022/01/21 03:41:08;;;;;;;6.43;2.90;;;6.20;53.20;;;;;;5067737;28;20444;-85
2022/01/21 03:43:37;;;;;;;7.23;2.33;;;6.20;53.10;;;;;;5059390;28;20591;-87
2022/01/21 03:46:05;;;;;;;12.53;3.73;;;6.30;53.00;;;;;;5076917;28;20455;-87
2022/01/21 03:48:33;;;;;;;9.97;3.40;;;6.10;53.10;;;;;;5057947;28;20491;-87
2022/01/21 03:51:01;;;;;;;4.93;2.63;;;5.70;53.60;;;;;;5058248;28;20510;-88
2022/01/21 03:53:28;;;;;;;11.23;4.50;;;5.70;54.30;;;;;;5056836;28;20988;-87
2022/01/21 03:55:55;;;;;;;5.90;2.63;;;5.90;54.20;;;;;;5076762;28;20444;-88
2022/01/21 03:58:23;;;;;;;5.17;3.00;;;5.80;54.00;;;;;;5056486;28;20940;-87
2022/01/21 04:00:54;;;;;;;15.73;4.10;;;5.70;54.10;;;;;;5057286;28;20460;-87
2022/01/21 04:03:23;;;;;;;6.70;3.43;;;5.60;54.80;;;;;;5060285;28;20484;-88
2022/01/21 04:05:52;;;;;;;5.80;3.50;;;5.60;54.60;;;;;;5075685;28;20467;-87
2022/01/21 04:08:19;;;;;;;18.23;3.77;;;5.60;54.80;;;;;;5074697;28;20541;-87
2022/01/21 04:10:53;;;;;;;8.27;3.53;;;5.80;54.90;;;;;;5059229;28;20813;-86
2022/01/21 04:13:22;;;;;;;5.77;3.27;;;5.70;54.40;;;;;;5045962;28;20479;-85
2022/01/21 04:15:56;;;;;;;4.47;3.07;;;5.80;54.50;;;;;;5063207;28;20514;-87
2022/01/21 04:18:24;;;;;;;9.17;3.27;;;5.90;54.40;;;;;;5073579;28;20459;-87
2022/01/21 04:20:55;;;;;;;5.80;2.73;;;6.00;54.10;;;;;;5053750;28;21059;-87
2022/01/21 04:23:25;;;;;;;6.93;3.37;;;6.10;53.60;;;;;;5056255;28;20481;-87
2022/01/21 04:25:54;;;;;;;4.17;3.13;;;6.30;53.50;;;;;;5063897;28;20464;-87
2022/01/21 04:28:21;;;;;;;5.97;3.50;;;6.50;53.50;;;;;;5062487;28;20868;-85
2022/01/21 04:30:49;;;;;;;5.10;3.07;;;6.60;53.00;;;;;;5056191;28;20517;-87
2022/01/21 04:33:20;;;;;;;6.43;3.33;;;6.70;52.90;;;;;;5064102;28;20647;-86
2022/01/21 04:35:57;;;;;;;6.93;3.40;;;6.60;52.50;;;;;;5054873;28;20834;-87
2022/01/21 04:38:25;;;;;;;11.10;3.50;;;6.60;52.50;;;;;;5049112;28;20463;-87
2022/01/21 04:40:59;;;;;;;4.70;3.77;;;6.60;52.60;;;;;;5053967;28;20533;-87
2022/01/21 04:48:56;;;;;;;4.20;3.03;;;6.70;52.90;;;;;;5053016;28;20453;-88
2022/01/21 04:51:28;;;;;;;4.17;3.47;;;6.80;52.70;;;;;;5055585;28;20484;-87
2022/01/21 04:53:55;;;;;;;9.30;3.83;;;6.80;52.50;;;;;;5063624;28;20575;-88
2022/01/21 04:56:26;;;;;;;4.30;3.37;;;6.90;52.50;;;;;;5064559;28;20455;-88
2022/01/21 04:58:56;;;;;;;28.77;14.77;;;6.80;52.40;;;;;;5056972;28;20901;-88
2022/01/21 05:01:23;;;;;;;44.63;25.80;;;6.70;52.70;;;;;;5051430;28;20484;-88
2022/01/21 05:03:51;;;;;;;8.90;6.33;;;6.70;52.80;;;;;;5053324;28;20480;-87
2022/01/21 05:06:20;;;;;;;7.87;5.47;;;6.60;52.80;;;;;;5054211;28;21130;-87
2022/01/21 05:08:52;;;;;;;3.97;3.60;;;6.60;53.00;;;;;;5053482;28;20462;-87
2022/01/21 05:11:19;;;;;;;7.60;4.40;;;6.70;52.80;;;;;;5060178;28;20462;-87
2022/01/21 05:13:55;;;;;;;6.13;3.57;;;6.80;52.80;;;;;;5054432;28;20479;-87
2022/01/21 05:16:32;;;;;;;10.63;3.80;;;6.80;52.70;;;;;;5069400;28;20985;-87
2022/01/21 05:19:05;;;;;;;10.40;4.23;;;6.90;52.40;;;;;;5060836;28;20470;-87
2022/01/21 05:21:48;;;;;;;4.70;3.37;;;6.80;51.90;;;;;;5060918;28;20463;-87
2022/01/21 05:24:24;;;;;;;4.70;3.40;;;6.90;52.30;;;;;;5054145;28;20960;-86
2022/01/21 05:26:54;;;;;;;7.07;3.03;;;6.90;52.20;;;;;;5049463;28;20836;-87
2022/01/21 05:29:26;;;;;;;5.30;3.00;;;6.90;52.20;;;;;;5053304;28;20554;-87
2022/01/21 05:31:58;;;;;;;7.73;3.70;;;6.90;52.20;;;;;;5051819;28;20972;-88
2022/01/21 05:34:31;;;;;;;6.20;3.60;;;6.90;52.20;;;;;;5049581;28;20448;-86
2022/01/21 05:37:22;;;;;;;8.23;3.70;;;6.90;51.80;;;;;;5050059;28;20606;-88
2022/01/21 05:40:13;;;;;;;6.40;3.17;;;6.80;51.90;;;;;;5059830;28;20986;-88
2022/01/21 05:42:49;;;;;;;4.30;3.23;;;6.80;52.00;;;;;;5059680;28;20697;-87
2022/01/21 05:48:51;;;;;;;11.50;4.43;;;6.50;52.00;;;;;;5025253;28;20455;-88
2022/01/21 05:51:37;;;;;;;12.57;5.97;;;6.50;52.50;;;;;;5070974;28;20500;-88
2022/01/21 05:54:38;;;;;;;6.27;2.80;;;6.50;52.20;;;;;;5028709;28;20457;-87
2022/01/21 05:57:44;;;;;;;12.70;4.00;;;6.50;52.20;;;;;;5042650;28;20471;-87
2022/01/21 06:00:16;;;;;;;10.60;4.60;;;6.50;52.50;;;;;;5059465;28;21031;-87
2022/01/21 06:02:49;;;;;;;7.80;3.93;;;6.50;52.60;;;;;;5066298;28;20484;-87
2022/01/21 06:05:16;;;;;;;10.17;3.90;;;6.50;52.50;;;;;;5058437;28;21037;-87
2022/01/21 06:07:44;;;;;;;7.93;4.97;;;6.40;52.60;;;;;;5057632;28;20455;-87
2022/01/21 06:10:12;;;;;;;8.63;4.10;;;6.30;53.00;;;;;;5051920;28;20554;-87
2022/01/21 06:12:39;;;;;;;10.77;6.43;;;6.40;53.10;;;;;;5068971;28;20480;-86
2022/01/21 06:15:06;;;;;;;7.03;4.50;;;6.40;52.70;;;;;;5065869;28;20462;-88
2022/01/21 06:17:34;;;;;;;14.00;4.37;;;6.20;53.00;;;;;;5048601;28;20460;-86
2022/01/21 06:20:01;;;;;;;23.60;6.90;;;6.20;53.50;;;;;;5069712;28;20471;-87
2022/01/21 06:22:28;;;;;;;11.30;5.20;;;6.30;53.10;;;;;;5070046;28;20479;-86
2022/01/21 06:24:56;;;;;;;9.40;3.67;;;6.50;53.00;;;;;;5069553;28;20464;-86
2022/01/21 06:27:26;;;;;;;6.77;3.33;;;6.50;52.70;;;;;;5069121;28;20505;-87
2022/01/21 06:29:54;;;;;;;12.30;4.80;;;6.50;52.80;;;;;;5066098;28;20452;-87
2022/01/21 06:32:21;;;;;;;11.30;4.30;;;6.40;52.60;;;;;;5067261;28;21014;-85
2022/01/21 06:34:48;;;;;;;14.13;4.00;;;6.40;53.60;;;;;;5068536;28;20468;-87
2022/01/21 06:37:15;;;;;;;7.13;4.67;;;6.50;53.10;;;;;;5067223;28;20538;-87
2022/01/21 06:39:42;;;;;;;5.83;3.67;;;6.50;52.70;;;;;;5069878;28;20452;-87
2022/01/21 06:42:09;;;;;;;12.70;5.17;;;6.40;52.80;;;;;;5070746;28;20488;-87
2022/01/21 06:44:38;;;;;;;7.53;4.83;;;6.40;53.00;;;;;;5066911;28;20440;-87
2022/01/21 06:47:05;;;;;;;8.50;4.20;;;6.30;52.90;;;;;;5066897;28;20476;-87
2022/01/21 06:49:32;;;;;;;15.07;3.80;;;6.20;53.20;;;;;;5064860;28;20455;-87
2022/01/21 06:51:59;;;;;;;9.17;5.10;;;6.00;53.60;;;;;;5066278;28;20519;-87
2022/01/21 06:54:27;;;;;;;8.37;5.90;;;5.90;53.70;;;;;;5069166;28;20541;-86
2022/01/21 06:56:53;;;;;;;12.00;6.27;;;5.90;53.80;;;;;;5065096;28;20456;-87
2022/01/21 06:59:20;;;;;;;8.67;5.20;;;6.00;54.10;;;;;;5068831;28;20456;-86
2022/01/21 07:01:49;;;;;;;16.63;5.27;;;6.10;53.90;;;;;;5067789;28;20837;-87
2022/01/21 07:04:16;;;;;;;12.63;5.00;;;6.10;53.60;;;;;;5068013;28;20467;-87
2022/01/21 07:06:43;;;;;;;12.93;5.73;;;6.10;53.70;;;;;;5071259;28;20450;-88
2022/01/21 07:09:10;;;;;;;14.03;5.40;;;6.20;54.20;;;;;;5069499;28;20460;-87
2022/01/21 07:11:37;;;;;;;28.13;7.10;;;6.30;53.50;;;;;;5073407;28;20832;-86
2022/01/21 07:14:04;;;;;;;9.43;4.93;;;6.30;53.20;;;;;;5073097;28;20806;-87
2022/01/21 07:16:31;;;;;;;16.07;4.70;;;6.20;53.40;;;;;;5062946;28;20470;-87
2022/01/21 07:18:59;;;;;;;7.77;5.23;;;6.00;53.70;;;;;;5073318;28;20797;-87
2022/01/21 07:21:26;;;;;;;26.97;12.93;;;6.10;53.70;;;;;;5074838;28;20881;-87
2022/01/21 07:23:53;;;;;;;18.97;9.63;;;6.20;53.60;;;;;;5072552;28;20475;-86
2022/01/21 07:26:20;;;;;;;15.17;9.00;;;6.20;53.40;;;;;;5072341;28;20458;-84
2022/01/21 07:28:47;;;;;;;8.10;5.53;;;6.20;53.30;;;;;;5071774;28;20460;-88
2022/01/21 07:31:14;;;;;;;10.03;6.10;;;6.40;53.30;;;;;;5075981;28;20449;-87
2022/01/21 07:33:41;;;;;;;10.23;4.43;;;6.40;53.10;;;;;;5075344;28;20997;-86
2022/01/21 07:36:10;;;;;;;15.00;5.00;;;6.40;53.20;;;;;;5060357;28;20445;-88
2022/01/21 07:38:38;;;;;;;13.97;5.03;;;6.30;53.50;;;;;;5073556;28;20611;-87
2022/01/21 07:41:05;;;;;;;18.47;5.10;;;6.30;53.60;;;;;;5074727;28;20557;-88
2022/01/21 07:43:32;;;;;;;13.50;5.00;;;6.40;53.60;;;;;;5069640;28;20583;-88
2022/01/21 07:46:00;;;;;;;9.03;5.87;;;6.50;53.50;;;;;;5052941;28;20460;-88
2022/01/21 07:48:27;;;;;;;13.90;6.33;;;6.60;53.40;;;;;;5071241;28;20461;-87
2022/01/21 07:50:53;;;;;;;6.87;5.17;;;6.60;53.40;;;;;;5069038;28;20482;-88
2022/01/21 07:53:22;;;;;;;7.40;4.87;;;6.50;53.00;;;;;;5073195;28;20877;-86
2022/01/21 07:55:50;;;;;;;19.53;5.27;;;6.70;53.10;;;;;;5073668;28;20543;-87
2022/01/21 07:58:17;;;;;;;11.57;6.13;;;6.80;53.10;;;;;;5072488;28;20985;-87
2022/01/21 08:00:45;;;;;;;7.23;4.53;;;6.80;53.00;;;;;;5069565;28;20473;-87
2022/01/21 08:03:12;;;;;;;9.37;6.30;;;6.90;53.00;;;;;;5072539;28;21053;-88
2022/01/21 08:05:42;;;;;;;20.30;7.03;;;6.80;53.10;;;;;;5070033;28;20517;-88
2022/01/21 08:08:09;;;;;;;9.67;6.10;;;6.80;52.90;;;;;;5069795;28;20547;-87
2022/01/21 08:10:37;;;;;;;17.67;6.17;;;6.90;53.00;;;;;;5070280;28;20948;-87
2022/01/21 08:13:04;;;;;;;5.73;4.50;;;6.90;52.80;;;;;;5069562;28;20491;-88
2022/01/21 08:15:32;;;;;;;7.30;4.80;;;7.00;52.90;;;;;;5071737;28;20456;-87
2022/01/21 08:17:59;;;;;;;10.27;5.10;;;6.90;52.90;;;;;;5068770;28;20957;-88
2022/01/21 08:20:26;;;;;;;13.83;4.70;;;6.70;52.80;;;;;;5069407;28;20543;-88
2022/01/21 08:22:53;;;;;;;10.63;4.70;;;6.70;52.60;;;;;;5071783;28;20984;-89
2022/01/21 08:25:20;;;;;;;17.13;5.03;;;6.70;52.70;;;;;;5069459;28;20828;-86
2022/01/21 08:27:49;;;;;;;10.40;4.70;;;6.60;53.00;;;;;;5071862;28;20575;-88
2022/01/21 08:30:16;;;;;;;8.97;5.80;;;6.40;53.10;;;;;;5053434;28;20958;-88
2022/01/21 08:32:43;;;;;;;9.47;4.83;;;6.30;53.00;;;;;;5042585;28;20500;-88
2022/01/21 08:35:11;;;;;;;15.73;5.60;;;6.40;53.30;;;;;;5072116;28;20477;-88
2022/01/21 08:37:38;;;;;;;9.53;5.07;;;6.50;53.30;;;;;;5071858;28;20499;-88
2022/01/21 08:40:07;;;;;;;16.87;5.97;;;6.70;53.30;;;;;;5070769;28;20458;-88
2022/01/21 08:42:34;;;;;;;12.33;6.20;;;6.70;52.60;;;;;;5070294;28;20514;-86
2022/01/21 08:45:02;;;;;;;14.07;5.20;;;6.80;52.70;;;;;;5068727;28;20459;-89
2022/01/21 08:47:29;;;;;;;10.47;5.80;;;6.80;52.40;;;;;;5069463;28;20462;-88
2022/01/21 08:50:00;;;;;;;15.83;5.80;;;6.70;52.70;;;;;;5067165;28;20451;-88
2022/01/21 08:52:29;;;;;;;18.37;9.20;;;6.70;52.30;;;;;;5071457;28;20755;-88
2022/01/21 08:54:56;;;;;;;11.27;5.43;;;6.80;52.40;;;;;;5070623;28;20939;-88
2022/01/21 08:57:23;;;;;;;20.83;6.97;;;6.80;52.00;;;;;;5071138;28;20960;-88
2022/01/21 08:59:50;;;;;;;11.10;5.70;;;6.70;52.10;;;;;;5068610;28;20454;-89
2022/01/21 09:02:19;;;;;;;22.47;11.23;;;6.90;52.50;;;;;;5067719;28;20484;-88
2022/01/21 09:04:46;;;;;;;16.07;6.10;;;6.90;52.20;;;;;;5069731;28;20474;-86
2022/01/21 09:07:13;;;;;;;11.27;5.57;;;7.00;52.10;;;;;;5068418;28;21078;-88
2022/01/21 09:09:40;;;;;;;15.47;6.70;;;7.00;52.20;;;;;;5073932;28;20465;-88
2022/01/21 09:12:08;;;;;;;10.60;5.47;;;7.10;51.80;;;;;;5075559;28;20487;-89
2022/01/21 09:14:35;;;;;;;8.93;5.73;;;6.90;52.10;;;;;;5070845;28;20447;-88
2022/01/21 09:17:03;;;;;;;11.27;5.13;;;6.60;51.90;;;;;;5064459;28;20800;-86
2022/01/21 09:19:32;;;;;;;10.43;4.90;;;6.60;53.10;;;;;;5067249;28;20460;-88
2022/01/21 09:22:02;;;;;;;15.10;7.53;;;6.50;52.90;;;;;;5049770;28;20483;-87
2022/01/21 09:24:30;;;;;;;6.63;4.70;;;6.40;53.30;;;;;;5070226;28;20471;-87
2022/01/21 09:26:57;;;;;;;15.30;7.67;;;6.40;53.40;;;;;;5051112;28;20475;-88
2022/01/21 09:29:24;;;;;;;20.90;6.43;;;6.60;53.70;;;;;;5071911;28;20943;-87
2022/01/21 09:31:52;;;;;;;15.47;7.20;;;6.80;53.50;;;;;;5071788;28;20661;-88
2022/01/21 09:34:19;;;;;;;22.93;6.23;;;6.90;52.70;;;;;;5068830;28;20726;-89
2022/01/21 09:36:48;;;;;;;11.17;5.73;;;6.90;52.90;;;;;;5067548;28;20452;-88
2022/01/21 09:39:15;;;;;;;13.03;6.27;;;6.70;52.90;;;;;;5068240;28;20448;-88
2022/01/21 09:41:43;;;;;;;8.90;5.07;;;6.80;53.10;;;;;;5070173;28;20472;-87
2022/01/21 09:44:13;;;;;;;11.83;5.50;;;7.00;53.00;;;;;;5071698;28;20558;-88
2022/01/21 09:46:44;;;;;;;14.90;5.67;;;7.00;52.60;;;;;;5052583;28;20785;-88
2022/01/21 09:49:26;;;;;;;10.90;5.67;;;7.20;52.80;;;;;;5070982;28;20456;-87
2022/01/21 09:51:56;;;;;;;11.73;5.77;;;7.30;52.30;;;;;;5072187;28;20917;-88
2022/01/21 09:54:25;;;;;;;11.63;5.70;;;7.30;51.60;;;;;;5073377;28;20465;-87
2022/01/21 09:56:54;;;;;;;9.03;5.00;;;7.20;52.30;;;;;;5070025;28;20452;-86
2022/01/21 09:59:23;;;;;;;10.30;5.60;;;7.20;52.50;;;;;;5072043;28;20445;-86
2022/01/21 10:01:51;;;;;;;12.30;6.03;;;7.30;52.50;;;;;;5070858;28;20467;-89
2022/01/21 10:04:21;;;;;;;10.67;6.33;;;7.40;52.30;;;;;;5069089;28;20557;-89
2022/01/21 10:06:49;;;;;;;10.20;6.00;;;7.30;52.00;;;;;;5071002;28;20483;-89
2022/01/21 10:09:21;;;;;;;15.93;7.20;;;7.30;52.20;;;;;;5060781;28;20459;-88
2022/01/21 10:11:49;;;;;;;18.67;7.70;;;7.00;52.70;;;;;;5055684;28;20470;-89
2022/01/21 10:14:20;;;;;;;11.20;6.17;;;7.00;53.10;;;;;;5077393;28;20459;-89
2022/01/21 10:16:48;;;;;;;15.70;5.70;;;7.10;53.30;;;;;;5072433;28;20450;-89
2022/01/21 10:19:22;;;;;;;15.43;6.20;;;6.90;52.60;;;;;;5072781;28;20892;-89
2022/01/21 10:21:58;;;;;;;17.57;6.23;;;6.70;53.60;;;;;;5071267;28;20467;-89
2022/01/21 10:24:27;;;;;;;13.20;5.73;;;6.70;54.20;;;;;;5054200;28;20448;-88
2022/01/21 10:26:55;;;;;;;20.53;6.00;;;6.90;53.80;;;;;;5053313;28;20467;-89
2022/01/21 10:29:24;;;;;;;9.23;3.60;;;6.90;53.70;;;;;;5070999;28;20840;-89
2022/01/21 10:31:56;;;;;;;20.23;6.00;;;6.60;53.50;;;;;;5075534;28;20447;-89
2022/01/21 10:34:28;;;;;;;9.47;5.50;;;6.50;54.70;;;;;;5040361;28;20451;-89
2022/01/21 10:37:03;;;;;;;11.63;5.67;;;6.50;54.80;;;;;;5073214;28;20463;-89
2022/01/21 10:39:34;;;;;;;18.87;6.70;;;6.60;54.40;;;;;;5055364;28;20455;-90
2022/01/21 10:42:02;;;;;;;10.30;6.30;;;6.70;54.60;;;;;;5056347;28;20525;-89
2022/01/21 10:44:30;;;;;;;16.93;6.67;;;6.70;53.80;;;;;;5078705;28;20452;-91
2022/01/21 10:47:07;;;;;;;9.30;5.70;;;6.60;54.60;;;;;;5076024;28;20443;-89
2022/01/21 10:49:39;;;;;;;14.97;7.87;;;6.70;53.90;;;;;;5075771;28;20491;-87
2022/01/21 10:52:09;;;;;;;7.27;4.53;;;6.40;54.10;;;;;;5059007;28;20852;-89
2022/01/21 10:54:42;;;;;;;18.80;7.30;;;6.70;54.80;;;;;;5043745;28;20476;-90
2022/01/21 10:57:12;;;;;;;6.07;4.33;;;6.70;54.50;;;;;;5059870;28;20868;-86
2022/01/21 10:59:54;;;;;;;7.17;4.50;;;6.60;53.90;;;;;;5079444;28;20462;-90
2022/01/21 11:02:33;;;;;;;10.83;4.90;;;6.10;54.50;;;;;;5054540;28;20480;-89
2022/01/21 11:05:04;;;;;;;7.63;5.20;;;6.30;54.90;;;;;;5076916;28;20943;-89
2022/01/21 11:07:58;;;;;;;6.37;4.90;;;6.30;54.80;;;;;;5072699;28;20472;-89
2022/01/21 11:10:48;;;;;;;17.50;4.87;;;6.50;53.90;;;;;;5078060;28;20555;-89
2022/01/21 11:13:39;;;;;;;14.43;4.93;;;6.50;54.30;;;;;;5077638;28;20885;-89
2022/01/21 11:16:18;;;;;;;16.33;5.00;;;6.60;53.90;;;;;;5074643;28;20819;-89
2022/01/21 11:18:52;;;;;;;10.27;4.97;;;6.60;53.90;;;;;;5055412;28;20548;-89
2022/01/21 11:21:19;;;;;;;7.67;3.83;;;6.70;53.90;;;;;;5057509;28;20941;-89
2022/01/21 11:23:46;;;;;;;9.50;5.17;;;6.80;53.80;;;;;;5073391;28;20475;-89
2022/01/21 11:26:17;;;;;;;6.20;4.27;;;6.80;53.50;;;;;;5074954;28;20484;-90
2022/01/21 11:28:48;;;;;;;6.23;4.87;;;6.90;53.50;;;;;;5057116;28;20484;-89
2022/01/21 11:31:16;;;;;;;18.33;5.63;;;7.20;53.70;;;;;;5074043;28;20460;-89
2022/01/21 11:33:43;;;;;;;12.77;5.27;;;7.20;53.00;;;;;;5074559;28;21057;-89
2022/01/21 11:36:11;;;;;;;11.90;5.57;;;7.00;53.10;;;;;;5057721;28;20785;-90
2022/01/21 11:38:40;;;;;;;11.40;5.40;;;7.00;52.90;;;;;;5073984;28;20586;-89
2022/01/21 11:41:09;;;;;;;13.33;5.70;;;7.10;53.70;;;;;;5062058;28;20460;-89
2022/01/21 11:43:39;;;;;;;16.03;4.97;;;7.30;53.10;;;;;;5032153;28;20472;-90
2022/01/21 11:46:25;;;;;;;9.83;5.67;;;7.50;53.30;;;;;;5064529;28;20447;-91
2022/01/21 11:48:55;;;;;;;15.23;7.37;;;7.40;52.60;;;;;;5072153;28;20487;-89
2022/01/21 11:51:26;;;;;;;8.03;5.60;;;7.50;52.60;;;;;;5079926;28;20452;-89
2022/01/21 11:53:56;;;;;;;12.63;6.40;;;7.40;52.80;;;;;;5073004;28;20881;-89
2022/01/21 11:56:39;;;;;;;8.43;4.40;;;7.30;53.20;;;;;;5073035;28;20550;-89
2022/01/21 11:59:11;;;;;;;6.80;4.83;;;7.20;53.30;;;;;;5076603;28;20444;-89
2022/01/21 12:01:46;;;;;;;11.27;5.73;;;7.10;53.10;;;;;;5075549;28;20466;-90
2022/01/21 12:04:14;;;;;;;15.70;6.53;;;7.10;53.00;;;;;;5072885;28;20459;-88
2022/01/21 12:06:41;;;;;;;9.70;5.50;;;6.90;53.50;;;;;;5077872;28;20534;-88
2022/01/21 12:09:10;;;;;;;12.50;5.67;;;7.00;53.50;;;;;;5048208;28;20883;-89
2022/01/21 12:11:39;;;;;;;9.60;4.90;;;7.10;53.20;;;;;;5075791;28;20982;-88
2022/01/21 12:14:44;;;;;;;13.20;6.13;;;7.10;53.80;;;;;;5074054;28;20890;-89
2022/01/21 12:17:41;;;;;;;15.00;5.40;;;7.10;53.60;;;;;;5057402;28;20535;-88
2022/01/21 12:20:09;;;;;;;11.90;6.13;;;7.20;53.20;;;;;;5057565;28;20534;-88
2022/01/21 12:22:37;;;;;;;12.50;5.57;;;7.10;53.10;;;;;;5077902;28;20845;-89
2022/01/21 12:25:07;;;;;;;9.50;5.20;;;7.10;53.80;;;;;;5076470;28;20462;-90
2022/01/21 12:27:36;;;;;;;9.87;5.87;;;7.10;53.00;;;;;;5078066;28;20645;-86
2022/01/21 12:30:30;;;;;;;16.13;6.70;;;7.00;53.40;;;;;;5073719;28;20469;-88
2022/01/21 12:33:10;;;;;;;7.80;4.40;;;6.80;53.80;;;;;;5056135;28;20468;-87
2022/01/21 12:36:00;;;;;;;11.50;5.03;;;6.90;53.90;;;;;;5076392;28;20467;-88
2022/01/21 12:41:39;;;;;;;6.60;4.17;;;7.70;53.10;;;;;;5059477;28;20441;-89
2022/01/21 12:44:08;;;;;;;8.27;4.93;;;8.10;51.80;;;;;;5077043;28;20532;-88
2022/01/21 12:46:39;;;;;;;11.37;5.10;;;8.30;51.90;;;;;;5074195;28;20452;-89
2022/01/21 12:49:36;;;;;;;8.40;4.90;;;8.10;52.40;;;;;;5062057;28;20467;-89
2022/01/21 12:52:44;;;;;;;17.23;5.83;;;7.90;52.00;;;;;;5054956;28;20939;-88
2022/01/21 12:58:04;;;;;;;10.93;4.77;;;7.70;52.70;;;;;;5054259;28;20447;-88
2022/01/21 13:00:31;;;;;;;8.53;4.97;;;7.70;53.10;;;;;;5076995;28;20552;-89
2022/01/21 13:03:08;;;;;;;19.87;6.00;;;7.80;52.50;;;;;;5072512;28;20567;-89
2022/01/21 13:05:44;;;;;;;13.03;5.47;;;7.80;52.50;;;;;;5073300;28;20972;-88
2022/01/21 13:08:24;;;;;;;8.50;5.20;;;8.00;52.30;;;;;;5073756;28;20463;-87
2022/01/21 13:10:51;;;;;;;11.83;6.10;;;8.00;52.90;;;;;;5073931;28;20455;-89
2022/01/21 13:13:33;;;;;;;7.33;4.10;;;7.80;53.00;;;;;;5063286;28;20954;-88
2022/01/21 13:16:00;;;;;;;9.10;5.27;;;7.90;53.40;;;;;;5073422;28;20505;-87
2022/01/21 13:18:32;;;;;;;7.13;4.83;;;8.00;52.40;;;;;;5072966;28;20456;-88
2022/01/21 13:21:00;;;;;;;13.37;6.53;;;7.90;51.90;;;;;;5069493;28;20455;-90
2022/01/21 13:23:40;;;;;;;10.60;6.70;;;7.60;53.00;;;;;;5074419;28;20480;-89
2022/01/21 13:26:19;;;;;;;15.67;4.50;;;7.60;53.10;;;;;;5073688;28;20452;-88
2022/01/21 13:29:00;;;;;;;11.00;5.07;;;7.60;53.50;;;;;;5073475;28;20448;-88
2022/01/21 13:31:29;;;;;;;9.73;5.20;;;7.60;53.80;;;;;;5073899;28;20547;-88
2022/01/21 13:34:09;;;;;;;9.37;5.50;;;7.90;54.00;;;;;;5070140;28;20992;-89
2022/01/21 13:36:37;;;;;;;36.27;16.10;;;8.10;53.60;;;;;;5071494;28;21183;-89
2022/01/21 13:39:11;;;;;;;15.13;6.53;;;8.10;53.20;;;;;;5074360;28;20451;-89
2022/01/21 13:42:03;;;;;;;8.13;5.43;;;7.90;52.90;;;;;;5076923;28;20488;-88
2022/01/21 13:44:42;;;;;;;11.50;6.60;;;7.70;53.60;;;;;;5062098;28;20892;-87
2022/01/21 13:47:29;;;;;;;13.43;6.70;;;7.70;53.50;;;;;;5075423;28;20460;-89
2022/01/21 13:50:00;;;;;;;7.83;5.00;;;7.70;54.10;;;;;;5071585;28;20456;-89
2022/01/21 13:52:42;;;;;;;7.70;5.80;;;7.60;53.30;;;;;;5072615;28;20642;-89
2022/01/21 13:55:12;;;;;;;10.80;5.67;;;7.40;53.90;;;;;;5058157;28;20456;-89
2022/01/21 13:57:45;;;;;;;10.87;6.13;;;7.50;54.50;;;;;;5073237;28;20488;-89
2022/01/21 14:00:14;;;;;;;9.00;6.17;;;7.50;54.20;;;;;;5074352;28;20663;-89